createdAt,value
2023-05-18T00:00:11.097Z,21.17
2023-05-18T00:02:39.278Z,18.50
2023-05-18T00:05:08.913Z,25.83
2023-05-18T00:07:37.463Z,17.93
2023-05-18T00:10:06.213Z,19.63
2023-05-18T00:12:34.302Z,25.90
2023-05-18T00:15:02.378Z,21.80
2023-05-18T00:17:32.326Z,20.73
2023-05-18T00:20:01.017Z,24.97
2023-05-18T00:22:30.086Z,26.97
2023-05-18T00:24:58.157Z,18.87
2023-05-18T00:27:26.147Z,19.70
2023-05-18T00:29:54.403Z,18.00
2023-05-18T00:32:22.406Z,24.93
2023-05-18T00:34:51.827Z,15.73
2023-05-18T00:37:19.850Z,18.87
2023-05-18T00:39:47.932Z,21.37
2023-05-18T00:42:16.104Z,18.27
2023-05-18T00:44:44.133Z,18.30
2023-05-18T00:47:12.305Z,17.33
2023-05-18T00:49:40.422Z,18.90
2023-05-18T00:52:09.972Z,21.07
2023-05-18T00:54:38.042Z,20.37
2023-05-18T00:57:07.434Z,21.73
2023-05-18T00:59:35.525Z,20.17
2023-05-18T01:02:04.280Z,19.87
2023-05-18T01:04:32.830Z,21.37
2023-05-18T01:07:06.971Z,17.67
2023-05-18T01:09:36.699Z,18.27
2023-05-18T01:12:13.411Z,24.73
2023-05-18T01:14:50.041Z,18.87
2023-05-18T01:17:26.998Z,14.93
2023-05-18T01:20:18.748Z,19.60
2023-05-18T01:23:12.455Z,21.73
2023-05-18T01:25:51.239Z,17.20
2023-05-18T01:28:26.679Z,17.80
2023-05-18T01:30:55.958Z,24.40
2023-05-18T01:33:24.701Z,19.73
2023-05-18T01:35:53.504Z,18.23
2023-05-18T01:38:23.819Z,16.70
2023-05-18T01:40:59.044Z,15.00
2023-05-18T01:43:33.529Z,22.80
2023-05-18T01:46:09.475Z,21.93
2023-05-18T01:48:39.967Z,17.87
2023-05-18T01:51:11.799Z,23.57
2023-05-18T01:53:44.691Z,22.27
2023-05-18T01:56:15.469Z,23.83
2023-05-18T01:58:45.649Z,18.60
2023-05-18T02:01:13.848Z,15.07
2023-05-18T02:03:41.997Z,21.17
2023-05-18T02:06:10.125Z,18.27
2023-05-18T02:08:38.983Z,18.73
2023-05-18T02:11:07.013Z,16.63
2023-05-18T02:13:35.009Z,19.43
2023-05-18T02:16:06.223Z,17.03
2023-05-18T02:18:36.629Z,18.43
2023-05-18T02:21:05.180Z,19.00
2023-05-18T02:23:33.978Z,19.73
2023-05-18T02:26:02.575Z,14.57
2023-05-18T02:28:30.739Z,29.03
2023-05-18T02:31:08.053Z,20.70
2023-05-18T02:33:40.116Z,18.07
2023-05-18T02:36:12.392Z,16.77
2023-05-18T02:38:42.293Z,17.30
2023-05-18T02:41:10.914Z,15.87
2023-05-18T02:43:38.881Z,18.60
2023-05-18T02:46:08.355Z,17.23
2023-05-18T02:48:36.495Z,17.23
2023-05-18T02:51:04.653Z,17.17
2023-05-18T02:53:32.651Z,15.50
2023-05-18T02:56:03.531Z,15.93
2023-05-18T02:58:31.716Z,20.90
2023-05-18T03:01:00.956Z,15.67
2023-05-18T03:03:30.675Z,16.27
2023-05-18T03:05:58.764Z,23.00
2023-05-18T03:08:26.961Z,18.27
2023-05-18T03:10:55.159Z,15.80
2023-05-18T03:13:23.177Z,24.30
2023-05-18T03:15:51.926Z,21.47
2023-05-18T03:18:20.223Z,22.23
2023-05-18T03:20:52.263Z,19.17
2023-05-18T03:23:20.886Z,20.93
2023-05-18T03:25:54.509Z,19.37
2023-05-18T03:28:22.650Z,16.77
2023-05-18T03:30:50.752Z,16.47
2023-05-18T03:33:18.788Z,17.13
2023-05-18T03:35:48.631Z,15.43
2023-05-18T03:38:18.673Z,22.77
2023-05-18T03:40:46.730Z,16.43
2023-05-18T03:43:14.784Z,16.90
2023-05-18T03:45:42.882Z,13.70
2023-05-18T03:48:11.214Z,14.27
2023-05-18T03:50:39.236Z,16.90
2023-05-18T03:53:07.280Z,19.53
2023-05-18T03:55:36.724Z,21.20
2023-05-18T03:58:04.875Z,14.90
2023-05-18T04:00:32.890Z,13.13
2023-05-18T04:03:03.359Z,15.20
2023-05-18T04:05:31.776Z,17.10
2023-05-18T04:08:00.151Z,16.33
2023-05-18T04:10:28.197Z,20.40
2023-05-18T04:12:57.583Z,13.83
2023-05-18T04:15:25.703Z,15.77
2023-05-18T04:17:53.948Z,12.77
2023-05-18T04:20:22.193Z,13.47
2023-05-18T04:22:50.220Z,17.13
2023-05-18T04:25:18.768Z,19.93
2023-05-18T04:27:49.001Z,18.40
2023-05-18T04:30:22.578Z,17.50
2023-05-18T04:32:51.181Z,20.57
2023-05-18T04:35:19.862Z,17.63
2023-05-18T04:37:47.879Z,17.03
2023-05-18T04:40:17.451Z,16.97
2023-05-18T04:42:47.743Z,16.63
2023-05-18T04:45:17.696Z,17.53
2023-05-18T04:47:48.245Z,22.27
2023-05-18T04:50:17.117Z,17.63
2023-05-18T04:52:48.637Z,16.30
2023-05-18T04:55:23.010Z,20.87
2023-05-18T04:57:53.955Z,22.23
2023-05-18T05:00:22.428Z,14.00
2023-05-18T05:02:52.132Z,19.73
2023-05-18T05:05:20.721Z,21.17
2023-05-18T05:07:50.140Z,22.70
2023-05-18T05:10:18.846Z,17.87
2023-05-18T05:12:49.320Z,15.17
2023-05-18T05:15:17.750Z,22.50
2023-05-18T05:17:47.362Z,20.77
2023-05-18T05:20:17.177Z,20.03
2023-05-18T05:22:45.220Z,23.83
2023-05-18T05:25:13.389Z,17.60
2023-05-18T05:27:41.471Z,18.90
2023-05-18T05:30:10.474Z,23.10
2023-05-18T05:32:38.586Z,23.00
2023-05-18T05:35:07.457Z,16.93
2023-05-18T05:37:36.834Z,18.67
2023-05-18T05:40:06.450Z,19.77
2023-05-18T05:42:34.799Z,22.37
2023-05-18T05:45:02.834Z,23.80
2023-05-18T05:47:31.005Z,18.30
2023-05-18T05:49:59.033Z,21.37
2023-05-18T05:52:28.772Z,23.43
2023-05-18T05:54:58.897Z,22.70
2023-05-18T05:57:26.924Z,19.10
2023-05-18T05:59:54.947Z,24.53
2023-05-18T06:02:23.063Z,21.23
2023-05-18T06:04:51.153Z,23.83
2023-05-18T06:07:19.183Z,18.23
2023-05-18T06:09:47.188Z,17.87
2023-05-18T06:12:16.522Z,19.40
2023-05-18T06:14:44.971Z,15.37
2023-05-18T06:17:13.049Z,18.30
2023-05-18T06:19:41.165Z,19.50
2023-05-18T06:22:09.175Z,17.50
2023-05-18T06:24:37.203Z,17.20
2023-05-18T06:27:05.933Z,15.70
2023-05-18T06:29:35.319Z,15.67
2023-05-18T06:32:03.572Z,17.47
2023-05-18T06:34:31.849Z,19.47
2023-05-18T06:37:00.153Z,16.10
2023-05-18T06:39:28.521Z,15.17
2023-05-18T06:41:56.563Z,16.13
2023-05-18T06:44:24.896Z,13.73
2023-05-18T06:46:54.280Z,15.90
2023-05-18T06:49:22.354Z,17.23
2023-05-18T06:51:50.692Z,14.03
2023-05-18T06:54:18.914Z,15.10
2023-05-18T06:56:47.524Z,14.20
2023-05-18T06:59:15.838Z,16.90
2023-05-18T07:01:43.955Z,16.03
2023-05-18T07:04:13.546Z,15.20
2023-05-18T07:06:41.755Z,19.52
2023-05-18T07:09:09.841Z,16.97
2023-05-18T07:11:37.869Z,11.20
2023-05-18T07:14:06.110Z,11.13
2023-05-18T07:16:34.301Z,15.60
2023-05-18T07:19:02.894Z,12.43
2023-05-18T07:21:32.905Z,13.50
2023-05-18T07:24:01.469Z,11.48
2023-05-18T07:26:29.811Z,9.40
2023-05-18T07:28:58.062Z,10.27
2023-05-18T07:31:26.180Z,15.55
2023-05-18T07:33:54.337Z,12.77
2023-05-18T07:36:22.398Z,14.60
2023-05-18T07:38:55.004Z,10.60
2023-05-18T07:41:23.678Z,13.30
2023-05-18T07:43:53.062Z,11.82
2023-05-18T07:46:21.554Z,10.45
2023-05-18T07:48:49.804Z,12.20
2023-05-18T07:51:18.214Z,13.60
2023-05-18T07:53:47.461Z,12.88
2023-05-18T07:56:16.877Z,15.93
2023-05-18T07:58:45.408Z,12.73
2023-05-18T08:01:13.563Z,10.68
2023-05-18T08:03:42.019Z,9.75
2023-05-18T08:06:10.229Z,10.63
2023-05-18T08:08:38.324Z,14.13
2023-05-18T08:11:06.776Z,10.80
2023-05-18T08:13:36.197Z,16.50
2023-05-18T08:18:38.363Z,14.93
2023-05-18T08:21:08.249Z,10.33
2023-05-18T08:23:36.549Z,18.53
2023-05-18T08:26:05.190Z,11.93
2023-05-18T08:28:33.343Z,12.03
2023-05-18T08:31:02.812Z,18.27
2023-05-18T08:33:32.608Z,16.73
2023-05-18T08:36:00.783Z,14.80
2023-05-18T08:38:28.812Z,12.10
2023-05-18T08:41:03.811Z,8.13
2023-05-18T08:43:34.042Z,8.03
2023-05-18T08:46:08.573Z,11.00
2023-05-18T08:48:38.514Z,10.13
2023-05-18T08:51:09.619Z,13.07
2023-05-18T08:53:40.140Z,10.67
2023-05-18T08:56:09.768Z,8.73
2023-05-18T08:58:43.441Z,9.73
2023-05-18T09:01:13.365Z,8.50
2023-05-18T09:03:42.976Z,10.03
2023-05-18T09:06:11.529Z,13.03
2023-05-18T09:08:39.887Z,12.57
2023-05-18T09:11:09.419Z,9.10
2023-05-18T09:13:37.453Z,8.93
2023-05-18T09:16:07.864Z,7.73
2023-05-18T09:18:37.666Z,8.17
2023-05-18T09:21:06.260Z,8.87
2023-05-18T09:23:34.825Z,8.47
2023-05-18T09:26:04.890Z,12.60
2023-05-18T09:28:36.600Z,10.00
2023-05-18T09:31:07.445Z,12.45
2023-05-18T09:33:38.684Z,10.47
2023-05-18T09:36:08.137Z,10.93
2023-05-18T09:38:38.471Z,12.40
2023-05-18T09:41:12.714Z,8.13
2023-05-18T09:43:40.968Z,8.67
2023-05-18T09:46:10.302Z,8.63
2023-05-18T09:48:44.026Z,9.90
2023-05-18T09:51:13.836Z,6.90
2023-05-18T09:53:41.980Z,8.10
2023-05-18T09:56:12.548Z,15.53
2023-05-18T09:58:41.077Z,10.47
2023-05-18T10:01:09.127Z,10.15
2023-05-18T10:03:40.538Z,10.40
2023-05-18T10:06:10.038Z,11.17
2023-05-18T10:08:39.037Z,11.83
2023-05-18T10:11:07.438Z,9.20
2023-05-18T10:13:36.075Z,10.63
2023-05-18T10:16:06.315Z,11.65
2023-05-18T10:18:36.669Z,11.00
2023-05-18T10:21:08.106Z,8.97
2023-05-18T10:23:38.168Z,10.80
2023-05-18T10:26:09.886Z,10.60
2023-05-18T10:28:43.314Z,8.77
2023-05-18T10:31:11.528Z,11.90
2023-05-18T10:33:39.849Z,11.27
2023-05-18T10:36:11.524Z,12.67
2023-05-18T10:38:40.663Z,8.90
2023-05-18T10:41:10.939Z,14.33
2023-05-18T10:43:39.465Z,12.60
2023-05-18T10:46:08.742Z,12.43
2023-05-18T10:48:40.146Z,8.67
2023-05-18T10:51:09.972Z,12.17
2023-05-18T10:53:39.095Z,14.47
2023-05-18T10:56:07.958Z,11.43
2023-05-18T10:58:38.441Z,9.83
2023-05-18T11:01:10.294Z,10.40
2023-05-18T11:03:41.215Z,11.23
2023-05-18T11:06:12.500Z,11.67
2023-05-18T11:08:45.616Z,13.97
2023-05-18T11:11:14.557Z,12.50
2023-05-18T11:13:46.282Z,8.02
2023-05-18T11:16:15.839Z,8.35
2023-05-18T11:18:46.397Z,11.38
2023-05-18T11:21:30.111Z,28.02
2023-05-18T11:24:18.728Z,18.35
2023-05-18T11:26:48.192Z,43.58
2023-05-18T11:29:20.877Z,13.45
2023-05-18T11:31:50.752Z,9.27
2023-05-18T11:34:39.657Z,12.15
2023-05-18T11:37:10.661Z,10.55
2023-05-18T11:39:47.808Z,9.77
2023-05-18T11:42:21.083Z,19.02
2023-05-18T11:44:55.689Z,10.13
2023-05-18T11:47:30.658Z,12.05
2023-05-18T11:49:59.165Z,9.93
2023-05-18T11:52:28.581Z,9.30
2023-05-18T11:54:57.845Z,10.48
2023-05-18T11:57:27.335Z,9.20
2023-05-18T11:59:59.199Z,10.68
2023-05-18T12:02:29.470Z,7.22
2023-05-18T12:05:00.304Z,11.02
2023-05-18T12:07:32.218Z,11.20
2023-05-18T12:10:01.657Z,9.68
2023-05-18T12:12:29.953Z,15.93
2023-05-18T12:15:01.147Z,16.45
2023-05-18T12:17:40.310Z,15.80
2023-05-18T12:20:11.373Z,14.25
2023-05-18T12:22:41.738Z,9.27
2023-05-18T12:25:10.777Z,13.85
2023-05-18T12:27:40.689Z,12.10
2023-05-18T12:30:13.892Z,9.05
2023-05-18T12:32:47.086Z,15.73
2023-05-18T12:35:15.237Z,10.88
2023-05-18T12:37:46.025Z,11.93
2023-05-18T12:40:15.756Z,11.13
2023-05-18T12:42:53.792Z,11.48
2023-05-18T12:45:24.799Z,9.47
2023-05-18T12:47:54.637Z,11.50
2023-05-18T12:50:24.916Z,11.93
2023-05-18T12:52:56.216Z,13.18
2023-05-18T12:55:25.394Z,12.43
2023-05-18T12:58:01.703Z,12.05
2023-05-18T13:00:33.806Z,13.88
2023-05-18T13:03:08.207Z,10.85
2023-05-18T13:05:37.716Z,10.45
2023-05-18T13:08:07.293Z,14.93
2023-05-18T13:10:36.029Z,17.27
2023-05-18T13:13:04.573Z,11.03
2023-05-18T13:15:37.622Z,10.27
2023-05-18T13:18:10.092Z,10.73
2023-05-18T13:20:43.083Z,11.20
2023-05-18T13:23:14.809Z,12.60
2023-05-18T13:25:43.485Z,12.87
2023-05-18T13:28:13.321Z,11.50
2023-05-18T13:30:42.518Z,9.67
2023-05-18T13:33:10.856Z,11.27
2023-05-18T13:35:40.612Z,10.47
2023-05-18T13:38:08.799Z,14.73
2023-05-18T13:40:38.774Z,15.37
2023-05-18T13:43:07.103Z,10.13
2023-05-18T13:45:36.707Z,10.23
2023-05-18T13:48:09.526Z,11.20
2023-05-18T13:50:38.600Z,22.10
2023-05-18T13:53:06.898Z,10.20
2023-05-18T13:55:35.482Z,10.47
2023-05-18T13:58:05.038Z,13.13
2023-05-18T14:00:33.985Z,13.37
2023-05-18T14:03:02.773Z,13.73
2023-05-18T14:05:30.909Z,9.87
2023-05-18T14:07:58.954Z,9.63
2023-05-18T14:10:27.144Z,11.03
2023-05-18T14:12:55.125Z,12.00
2023-05-18T14:15:24.497Z,12.87
2023-05-18T14:17:52.867Z,12.53
2023-05-18T14:20:21.005Z,12.83
2023-05-18T14:22:49.105Z,10.47
2023-05-18T14:25:17.244Z,16.23
2023-05-18T14:27:45.980Z,19.97
2023-05-18T14:30:14.307Z,12.03
2023-05-18T14:32:43.702Z,14.90
2023-05-18T14:35:12.387Z,17.80
2023-05-18T14:37:40.459Z,15.13
2023-05-18T14:40:09.725Z,16.17
2023-05-18T14:42:37.732Z,10.17
2023-05-18T14:45:06.345Z,10.73
2023-05-18T14:47:34.420Z,15.80
2023-05-18T14:50:03.908Z,9.07
2023-05-18T14:52:31.964Z,6.47
2023-05-18T14:54:59.967Z,6.10
2023-05-18T14:57:28.035Z,6.83
2023-05-18T14:59:56.220Z,9.27
2023-05-18T15:02:24.281Z,10.13
2023-05-18T15:04:52.319Z,9.77
2023-05-18T15:07:21.764Z,11.87
2023-05-18T15:09:49.772Z,7.60
2023-05-18T15:12:19.599Z,9.20
2023-05-18T15:14:47.620Z,9.70
2023-05-18T15:17:15.666Z,8.17
2023-05-18T15:19:43.629Z,7.77
2023-05-18T15:22:11.629Z,7.20
2023-05-18T15:24:41.516Z,6.50
2023-05-18T15:27:10.552Z,7.77
2023-05-18T15:29:38.755Z,7.67
2023-05-18T15:32:07.765Z,6.90
2023-05-18T15:34:36.002Z,7.57
2023-05-18T15:37:04.084Z,7.43
2023-05-18T15:39:32.265Z,7.47
2023-05-18T15:42:01.647Z,5.83
2023-05-18T15:44:29.921Z,5.90
2023-05-18T15:46:58.241Z,6.60
2023-05-18T15:49:26.299Z,7.40
2023-05-18T15:51:54.373Z,8.70
2023-05-18T15:54:22.366Z,9.43
2023-05-18T15:56:51.103Z,7.57
2023-05-18T15:59:20.564Z,6.97
2023-05-18T16:01:48.763Z,10.00
2023-05-18T16:04:16.906Z,7.70
2023-05-18T16:06:44.923Z,10.23
2023-05-18T16:09:13.116Z,9.90
2023-05-18T16:11:41.118Z,7.73
2023-05-18T16:14:09.098Z,11.30
2023-05-18T16:16:38.622Z,13.13
2023-05-18T16:19:07.420Z,11.17
2023-05-18T16:21:35.529Z,13.40
2023-05-18T16:24:03.593Z,9.40
2023-05-18T16:26:31.714Z,13.60
2023-05-18T16:28:59.727Z,9.60
2023-05-18T16:31:27.795Z,9.90
2023-05-18T16:33:57.524Z,7.77
2023-05-18T16:36:26.201Z,9.90
2023-05-18T16:38:54.469Z,8.47
2023-05-18T16:41:22.453Z,8.97
2023-05-18T16:43:50.643Z,8.97
2023-05-18T16:46:20.010Z,15.20
2023-05-18T16:48:48.240Z,8.13
2023-05-18T16:51:17.660Z,10.67
2023-05-18T16:53:45.671Z,10.60
2023-05-18T16:56:14.077Z,9.83
2023-05-18T16:58:42.076Z,13.33
2023-05-18T17:01:23.592Z,16.63
2023-05-18T17:03:56.092Z,12.87
2023-05-18T17:06:25.808Z,10.43
2023-05-18T17:08:57.965Z,14.07
2023-05-18T17:11:26.927Z,12.57
2023-05-18T17:13:55.273Z,13.70
2023-05-18T17:16:23.553Z,16.23
2023-05-18T17:18:53.433Z,12.20
2023-05-18T17:21:23.758Z,14.73
2023-05-18T17:23:53.154Z,16.27
2023-05-18T17:26:21.513Z,13.50
2023-05-18T17:28:49.557Z,12.50
2023-05-18T17:31:17.891Z,14.27
2023-05-18T17:33:47.411Z,13.83
2023-05-18T17:36:17.160Z,12.93
2023-05-18T17:38:45.294Z,12.77
2023-05-18T17:41:14.677Z,9.83
2023-05-18T17:43:42.817Z,11.60
2023-05-18T17:46:10.820Z,9.83
2023-05-18T17:48:38.869Z,10.60
2023-05-18T17:51:07.482Z,10.73
2023-05-18T17:53:35.647Z,11.57
2023-05-18T17:56:03.970Z,8.97
2023-05-18T17:58:33.323Z,8.20
2023-05-18T18:01:01.414Z,8.87
2023-05-18T18:03:29.484Z,10.73
2023-05-18T18:05:57.660Z,8.30
2023-05-18T18:08:28.317Z,11.07
2023-05-18T18:10:56.408Z,9.80
2023-05-18T18:13:24.727Z,8.73
2023-05-18T18:15:54.235Z,10.13
2023-05-18T18:18:23.388Z,10.17
2023-05-18T18:20:51.805Z,11.40
2023-05-18T18:23:19.811Z,11.43
2023-05-18T18:25:48.027Z,13.60
2023-05-18T18:28:16.097Z,13.40
2023-05-18T18:30:44.863Z,10.13
2023-05-18T18:33:15.245Z,13.57
2023-05-18T18:35:43.902Z,12.60
2023-05-18T18:38:12.894Z,14.77
2023-05-18T18:40:40.961Z,14.70
2023-05-18T18:43:09.007Z,16.23
2023-05-18T18:45:37.246Z,15.97
2023-05-18T18:48:06.163Z,19.27
2023-05-18T18:50:35.658Z,15.10
2023-05-18T18:53:03.665Z,17.33
2023-05-18T18:55:32.011Z,16.63
2023-05-18T18:58:01.421Z,20.37
2023-05-18T19:00:29.605Z,19.13
2023-05-18T19:02:57.676Z,19.77
2023-05-18T19:05:25.955Z,18.40
2023-05-18T19:07:55.958Z,18.33
2023-05-18T19:10:25.527Z,18.23
2023-05-18T19:12:54.202Z,17.33
2023-05-18T19:15:22.354Z,16.57
2023-05-18T19:17:52.200Z,17.40
2023-05-18T19:20:20.910Z,22.23
2023-05-18T19:22:48.951Z,19.73
2023-05-18T19:25:18.436Z,20.30
2023-05-18T19:27:46.570Z,17.43
2023-05-18T19:30:16.792Z,16.63
2023-05-18T19:32:44.803Z,23.33
2023-05-18T19:35:12.842Z,22.30
2023-05-18T19:37:40.962Z,22.60
2023-05-18T19:40:09.718Z,21.20
2023-05-18T19:42:39.092Z,17.17
2023-05-18T19:45:07.760Z,15.47
2023-05-18T19:47:35.938Z,11.37
2023-05-18T19:50:04.644Z,15.07
2023-05-18T19:52:33.615Z,18.00
2023-05-18T19:55:01.926Z,13.43
2023-05-18T19:57:30.165Z,13.30
2023-05-18T19:59:59.588Z,14.53
2023-05-18T20:02:27.581Z,18.03
2023-05-18T20:04:55.725Z,15.03
2023-05-18T20:07:23.984Z,15.27
2023-05-18T20:09:53.174Z,17.73
2023-05-18T20:12:21.375Z,15.10
2023-05-18T20:14:49.421Z,14.77
2023-05-18T20:17:19.286Z,12.77
2023-05-18T20:19:50.887Z,10.77
2023-05-18T20:22:19.248Z,12.23
2023-05-18T20:24:47.274Z,13.17
2023-05-18T20:27:16.374Z,11.33
2023-05-18T20:29:44.415Z,9.90
2023-05-18T20:32:12.440Z,12.93
2023-05-18T20:34:44.461Z,14.37
2023-05-18T20:37:13.900Z,13.83
2023-05-18T20:39:50.524Z,11.17
2023-05-18T20:42:21.860Z,11.70
2023-05-18T20:44:50.866Z,10.83
2023-05-18T20:47:20.486Z,12.43
2023-05-18T20:49:50.405Z,12.43
2023-05-18T20:52:18.440Z,11.93
2023-05-18T20:54:47.307Z,14.60
2023-05-18T20:57:15.521Z,10.87
2023-05-18T20:59:43.637Z,11.00
2023-05-18T21:02:11.936Z,10.87
2023-05-18T21:04:39.984Z,10.30
2023-05-18T21:07:09.990Z,16.33
2023-05-18T21:09:38.109Z,15.57
2023-05-18T21:12:06.977Z,14.40
2023-05-18T21:14:35.073Z,14.03
2023-05-18T21:17:03.049Z,14.83
2023-05-18T21:19:31.098Z,17.17
2023-05-18T21:21:59.120Z,19.00
2023-05-18T21:24:28.678Z,15.80
2023-05-18T21:26:56.950Z,19.87
2023-05-18T21:29:24.943Z,15.83
2023-05-18T21:31:53.123Z,15.80
2023-05-18T21:34:21.173Z,13.97
2023-05-18T21:36:49.338Z,17.43
2023-05-18T21:39:17.350Z,13.47
2023-05-18T21:41:46.711Z,19.10
2023-05-18T21:44:14.881Z,14.13
2023-05-18T21:46:44.005Z,11.97
2023-05-18T21:49:12.574Z,12.50
2023-05-18T21:51:40.590Z,13.70
2023-05-18T21:54:08.612Z,11.73
2023-05-18T21:56:36.922Z,15.80
2023-05-18T21:59:06.418Z,12.27
2023-05-18T22:01:34.547Z,15.57
2023-05-18T22:04:02.712Z,12.40
2023-05-18T22:06:31.206Z,10.40
2023-05-18T22:08:59.225Z,12.23
2023-05-18T22:11:27.364Z,10.60
2023-05-18T22:13:55.547Z,11.47
2023-05-18T22:16:25.005Z,12.27
2023-05-18T22:18:53.066Z,12.20
2023-05-18T22:21:21.128Z,8.53
2023-05-18T22:23:49.164Z,10.83
2023-05-18T22:26:17.258Z,11.17
2023-05-18T22:28:45.239Z,9.20
2023-05-18T22:31:13.279Z,9.80
2023-05-18T22:33:42.668Z,11.33
2023-05-18T22:36:10.866Z,10.07
2023-05-18T22:38:43.124Z,10.20
2023-05-18T22:41:11.228Z,8.10
2023-05-18T22:43:39.310Z,10.40
2023-05-18T22:46:07.886Z,9.23
2023-05-18T22:48:36.139Z,7.93
2023-05-18T22:51:06.431Z,10.80
2023-05-18T22:53:34.513Z,14.63
2023-05-18T22:56:02.981Z,10.73
2023-05-18T22:58:30.952Z,10.13
2023-05-18T23:00:58.963Z,9.97
2023-05-18T23:03:26.964Z,13.40
2023-05-18T23:05:54.977Z,10.13
2023-05-18T23:08:24.698Z,10.97
2023-05-18T23:10:54.435Z,11.33
2023-05-18T23:13:22.818Z,8.33
2023-05-18T23:15:50.910Z,10.10
2023-05-18T23:18:18.902Z,11.67
2023-05-18T23:20:46.896Z,9.77
2023-05-18T23:23:14.881Z,10.63
2023-05-18T23:25:44.226Z,9.80
2023-05-18T23:28:12.218Z,8.77
2023-05-18T23:30:40.451Z,11.13
2023-05-18T23:33:09.038Z,11.07
2023-05-18T23:35:39.076Z,12.80
2023-05-18T23:38:10.591Z,13.70
2023-05-18T23:40:38.965Z,13.60
2023-05-18T23:43:08.979Z,14.43
2023-05-18T23:45:37.580Z,14.73
2023-05-18T23:48:06.353Z,16.87
2023-05-18T23:50:35.034Z,14.57
2023-05-18T23:53:05.238Z,18.67
2023-05-18T23:55:35.439Z,17.53
2023-05-18T23:58:03.720Z,18.10
